Gilchrist, Texas
Current Conditions -  °F | °C
As of 12:55 AM on Saturday 25 Oct 2014 (Local Time) from KXIH Reporting Station
Overcast Overcast  
Wind Chill: 73°   Ceiling: 1800
Heat Index: 73°   Visibility: 10mi
Dew Point: 54°   Wind: 9mph
Humidity: 50%   Direction: 50°NE
Pressure: 30.12"   Gusts: NA
Location:  29.51°N, 94.49°W
Report Text: KXIH 250555Z AUTO 05008KT 10SM OVC018 23/12 A3012 RMK A01
Loading
Personal Weather Stations






























Interactive Weather Map
Tropical Storm Tracking
New forecast layout! Learn more

10-Day Weather Forecast

Advertisements
Track Severe Weather on mobile